Terminal Aerodrome Forecast
Issued by NWS

Home | Current Version | Previous Version | Text Only | Print | Product List | Glossary On
Versions: 1 2 3 4 5 6 7 8 9 10 11 12 13 14 15 16 17 18
068
FTUS41 KPHI 291129
TAFPNE
TAF
KPNE 291129Z 2912/3012 06013G22KT 6SM -SHRA OVC009
     FM291600 08015G25KT P6SM OVC015
     FM292100 07020G27KT 5SM -SHRA BR OVC009=

USA.gov is the U.S. government's official web portal to all federal, state and local government web resources and services.